Time;durP1;ratioP1;P1;durP2;ratioP2;P2;SDS_P1;SDS_P2;PMS_P1;PMS_P2;Temp;Humidity;BMP_temperature;BMP_pressure;BME280_temperature;BME280_humidity;BME280_pressure;Samples;Min_cycle;Max_cycle;Signal;HPM_P1;HPM_P2
2022/11/17 00:01:10;;;;;;;2.83;1.70;;;;;;;-145.69;100.00;52553.31;5114998;28;20240;-84
2022/11/17 00:03:38;;;;;;;3.23;1.63;;;;;;;-145.69;100.00;52559.25;5115344;28;20616;-84
2022/11/17 00:06:08;;;;;;;3.07;1.37;;;;;;;-145.69;100.00;52567.16;5115014;28;20300;-83
2022/11/17 00:08:35;;;;;;;2.33;1.40;;;;;;;-145.69;100.00;52561.22;5114567;28;20196;-84
2022/11/17 00:11:02;;;;;;;1.53;1.30;;;;;;;-145.69;100.00;52531.53;5114589;28;20253;-83
2022/11/17 00:16:14;;;;;;;3.70;1.60;;;;;;;-145.69;100.00;52571.13;5114800;28;20724;-84
2022/11/17 00:21:27;;;;;;;3.63;1.60;;;;;;;-145.69;100.00;52547.38;5114478;28;20216;-84
2022/11/17 00:23:55;;;;;;;4.57;1.60;;;;;;;-145.69;100.00;52586.97;5114647;28;20201;-84
2022/11/17 00:26:22;;;;;;;2.53;1.53;;;;;;;-145.69;100.00;52585.00;5114845;28;20292;-83
2022/11/17 00:28:52;;;;;;;2.53;1.50;;;;;;;-145.69;100.00;52535.47;5114872;28;20250;-84
2022/11/17 00:34:04;;;;;;;6.17;1.23;;;;;;;-145.69;100.00;52541.44;5114496;28;20247;-84
2022/11/17 00:36:32;;;;;;;2.57;1.40;;;;;;;-145.69;100.00;52517.66;5114146;28;20721;-84
2022/11/17 00:38:59;;;;;;;4.63;1.50;;;;;;;-145.69;100.00;52559.25;5114111;28;20582;-83
2022/11/17 00:41:25;;;;;;;3.87;1.30;;;;;;;-145.69;100.00;52551.31;5114023;28;20291;-84
2022/11/17 00:43:52;;;;;;;4.53;1.23;;;;;;;-145.69;100.00;52559.25;5114572;28;20292;-85
2022/11/17 00:46:18;;;;;;;2.00;1.30;;;;;;;-145.69;100.00;52561.22;5114276;28;20201;-83
2022/11/17 00:48:45;;;;;;;3.67;1.60;;;;;;;-145.69;100.00;52567.16;5113692;28;20611;-84
2022/11/17 00:51:13;;;;;;;1.97;1.40;;;;;;;-145.69;100.00;52543.41;5113805;28;20235;-83
2022/11/17 00:53:39;;;;;;;5.13;1.63;;;;;;;-145.69;100.00;52523.59;5114001;28;20762;-84
2022/11/17 00:56:06;;;;;;;1.73;1.43;;;;;;;-145.69;100.00;52537.47;5113963;28;20200;-83
2022/11/17 00:58:35;;;;;;;3.43;1.50;;;;;;;-145.69;100.00;52547.38;5113816;28;20205;-84
2022/11/17 01:01:02;;;;;;;3.53;1.33;;;;;;;-145.69;100.00;52537.47;5114001;28;20288;-85
2022/11/17 01:03:28;;;;;;;3.03;1.47;;;;;;;-145.69;100.00;52537.47;5114425;28;20209;-84
2022/11/17 01:05:55;;;;;;;2.50;1.30;;;;;;;-145.69;100.00;52539.44;5115083;28;20201;-85
2022/11/17 01:08:23;;;;;;;3.57;1.50;;;;;;;-145.69;100.00;52573.13;5114217;28;20571;-85
2022/11/17 01:10:49;;;;;;;3.47;1.80;;;;;;;-145.69;100.00;52551.31;5115398;28;20276;-84
2022/11/17 01:13:17;;;;;;;4.63;1.60;;;;;;;-145.69;100.00;52541.44;5114912;28;20197;-84
2022/11/17 01:15:44;;;;;;;5.73;1.50;;;;;;;-145.69;100.00;52571.13;5111185;28;20201;-83
2022/11/17 01:18:10;;;;;;;3.50;1.37;;;;;;;-145.69;100.00;52557.28;5114262;28;20204;-84
2022/11/17 01:20:37;;;;;;;2.63;1.50;;;;;;;-145.69;100.00;52563.22;5115218;28;20204;-86
2022/11/17 01:23:04;;;;;;;3.27;1.63;;;;;;;-145.69;100.00;52533.50;5113960;28;20556;-85
2022/11/17 01:25:32;;;;;;;4.40;1.73;;;;;;;-145.69;100.00;52586.97;5113554;28;20919;-84
2022/11/17 01:27:58;;;;;;;3.53;1.70;;;;;;;-145.69;100.00;52505.78;5113793;28;20627;-84
2022/11/17 01:30:25;;;;;;;4.63;1.70;;;;;;;-145.69;100.00;52555.28;5114029;28;20206;-85
2022/11/17 01:32:52;;;;;;;1.90;1.60;;;;;;;-145.69;100.00;52559.25;5113854;28;20231;-84
2022/11/17 01:35:18;;;;;;;7.23;2.10;;;;;;;-145.69;100.00;52505.78;5098677;28;20206;-84
2022/11/17 01:37:45;;;;;;;4.03;1.90;;;;;;;-145.69;100.00;52527.56;5093320;28;20209;-83
2022/11/17 01:40:15;;;;;;;3.00;1.57;;;;;;;-145.69;100.00;52545.38;5093219;28;20194;-83
2022/11/17 01:42:43;;;;;;;3.87;2.10;;;;;;;-145.69;100.00;52519.63;5092580;28;20198;-83
2022/11/17 01:45:20;;;;;;;4.23;2.30;;;;;;;-145.69;100.00;52531.53;5093645;28;20202;-84
2022/11/17 01:47:50;;;;;;;3.83;2.33;;;;;;;-145.69;100.00;52537.47;5093456;28;20208;-84
2022/11/17 01:50:24;;;;;;;3.43;2.53;;;;;;;-145.69;100.00;52551.31;5113491;28;20610;-84
2022/11/17 01:52:53;;;;;;;3.07;2.17;;;;;;;-145.69;100.00;52557.28;5113569;28;20705;-84
2022/11/17 01:55:24;;;;;;;4.60;2.47;;;;;;;-145.69;100.00;52575.09;5114113;28;20197;-84
2022/11/17 01:57:57;;;;;;;5.40;2.60;;;;;;;-145.69;100.00;52521.63;5114182;28;20205;-85
2022/11/17 02:00:24;;;;;;;7.63;3.50;;;;;;;-145.69;100.00;52543.41;5114659;28;20264;-85
2022/11/17 02:02:54;;;;;;;5.43;3.40;;;;;;;-145.69;100.00;52519.63;5116247;28;20458;-85
2022/11/17 02:05:35;;;;;;;5.70;3.10;;;;;;;-145.69;100.00;52535.47;5117884;28;20237;-84
2022/11/17 02:08:05;;;;;;;4.67;3.10;;;;;;;-145.69;100.00;52519.63;5117774;28;20614;-83
2022/11/17 02:10:32;;;;;;;7.00;3.30;;;;;;;-145.69;100.00;52539.44;5117634;28;20197;-83
2022/11/17 02:13:01;;;;;;;7.97;3.30;;;;;;;-145.69;100.00;52535.47;5117896;28;20235;-83
2022/11/17 02:15:29;;;;;;;8.50;3.50;;;;;;;-145.69;100.00;52519.63;5117715;28;20197;-84
2022/11/17 02:17:59;;;;;;;7.50;3.50;;;;;;;-145.69;100.00;52563.22;5117804;28;20660;-83
2022/11/17 02:20:43;;;;;;;4.33;3.10;;;;;;;-145.69;100.00;52525.59;5118220;28;20259;-85
2022/11/17 02:23:31;;;;;;;8.33;3.47;;;;;;;-145.69;100.00;52596.88;5119112;28;20325;-85
2022/11/17 02:26:29;;;;;;;6.80;3.73;;;;;;;-145.69;100.00;52555.28;5118247;28;20205;-85
2022/11/17 02:29:06;;;;;;;6.17;3.10;;;;;;;-145.69;100.00;52529.53;5116971;28;20208;-83
2022/11/17 02:31:40;;;;;;;6.20;3.63;;;;;;;-145.69;100.00;52559.25;5116975;28;20231;-84
2022/11/17 02:34:15;;;;;;;3.80;3.03;;;;;;;-145.69;100.00;52517.66;5117517;28;20279;-84
2022/11/17 02:36:47;;;;;;;6.00;3.23;;;;;;;-145.69;100.00;52543.41;5117082;28;20237;-85
2022/11/17 02:39:20;;;;;;;5.60;2.90;;;;;;;-145.69;100.00;52541.44;5117107;28;20307;-83
2022/11/17 02:41:54;;;;;;;7.23;3.40;;;;;;;-145.69;100.00;52549.34;5117514;28;20197;-84
2022/11/17 02:44:29;;;;;;;3.40;2.70;;;;;;;-145.69;100.00;52525.59;5116856;28;20279;-84
2022/11/17 02:47:02;;;;;;;7.17;3.63;;;;;;;-145.69;100.00;52531.53;5096430;28;20297;-84
2022/11/17 02:49:34;;;;;;;7.07;3.27;;;;;;;-145.69;100.00;52571.13;5096111;28;20240;-84
2022/11/17 02:52:02;;;;;;;7.10;3.23;;;;;;;-145.69;100.00;52519.63;5103293;28;20218;-84
2022/11/17 02:54:31;;;;;;;8.67;3.43;;;;;;;-145.69;100.00;52527.56;5116954;28;20291;-84
2022/11/17 02:56:58;;;;;;;5.00;3.50;;;;;;;-145.69;100.00;52579.06;5117002;28;20224;-84
2022/11/17 02:59:31;;;;;;;5.33;3.37;;;;;;;-145.69;100.00;52527.56;5116419;28;20232;-84
2022/11/17 03:02:19;;;;;;;8.20;4.43;;;;;;;-145.69;100.00;52539.44;5116383;28;20223;-83
2022/11/17 03:05:00;;;;;;;9.83;4.23;;;;;;;-145.69;100.00;52549.34;5116215;28;20276;-84
2022/11/17 03:07:43;;;;;;;5.97;4.20;;;;;;;-145.69;100.00;52575.09;5116910;28;20271;-83
2022/11/17 03:10:16;;;;;;;5.83;3.60;;;;;;;-145.69;100.00;52559.25;5116124;28;20193;-83
2022/11/17 03:12:51;;;;;;;6.40;3.10;;;;;;;-145.69;100.00;52523.59;5119682;28;20225;-84
2022/11/17 03:15:25;;;;;;;6.83;4.10;;;;;;;-145.69;100.00;52555.28;5122736;28;20197;-83
2022/11/17 03:18:03;;;;;;;8.50;2.93;;;;;;;-145.69;100.00;52513.69;5124977;28;20215;-84
2022/11/17 03:20:39;;;;;;;6.97;3.10;;;;;;;-145.69;100.00;52501.81;5121421;28;20211;-82
2022/11/17 03:23:10;;;;;;;8.93;4.20;;;;;;;-145.69;100.00;52553.31;5116966;28;20197;-84
2022/11/17 03:25:39;;;;;;;6.57;3.57;;;;;;;-145.69;100.00;52577.06;5116624;28;20284;-84
2022/11/17 03:28:11;;;;;;;5.30;3.20;;;;;;;-145.69;100.00;52547.38;5117617;28;20202;-85
2022/11/17 03:30:43;;;;;;;5.53;3.37;;;;;;;-145.69;100.00;52547.38;5116225;28;20242;-84
2022/11/17 03:33:15;;;;;;;6.97;3.53;;;;;;;-145.69;100.00;52561.22;5115730;28;20691;-84
2022/11/17 03:35:46;;;;;;;11.00;3.77;;;;;;;-145.69;100.00;52590.94;5104278;28;20809;-84
2022/11/17 03:38:15;;;;;;;6.17;3.60;;;;;;;-145.69;100.00;52555.28;5096946;28;20201;-84
2022/11/17 03:40:46;;;;;;;8.07;3.43;;;;;;;-145.69;100.00;52577.06;5097281;28;20204;-83
2022/11/17 03:43:17;;;;;;;8.40;3.60;;;;;;;-145.69;100.00;52539.44;5097244;28;20293;-83
2022/11/17 03:45:49;;;;;;;5.60;3.30;;;;;;;-145.69;100.00;52541.44;5112595;28;20648;-83
2022/11/17 03:48:21;;;;;;;4.90;3.20;;;;;;;-145.69;100.00;52547.38;5116213;28;20219;-84
2022/11/17 03:50:53;;;;;;;2.63;2.13;;;;;;;-145.69;100.00;52594.91;5115731;28;20674;-84
2022/11/17 03:53:22;;;;;;;5.90;2.57;;;;;;;-145.69;100.00;52579.06;5116918;28;20229;-84
2022/11/17 03:55:56;;;;;;;4.60;2.40;;;;;;;-145.69;100.00;52535.47;5115607;28;20209;-85
2022/11/17 03:58:26;;;;;;;5.13;1.83;;;;;;;-145.69;100.00;52551.31;5115029;28;20189;-84
2022/11/17 04:00:58;;;;;;;4.40;2.17;;;;;;;-145.69;100.00;52551.31;5115751;28;20224;-84
2022/11/17 04:03:29;;;;;;;6.53;2.13;;;;;;;-145.69;100.00;52575.09;5115900;28;20301;-84
2022/11/17 04:05:56;;;;;;;3.47;1.57;;;;;;;-145.69;100.00;52535.47;5115460;28;20663;-84
2022/11/17 04:08:24;;;;;;;2.40;1.83;;;;;;;-145.69;100.00;52521.63;5114788;28;20205;-83
2022/11/17 04:16:23;;;;;;;2.20;1.40;;;;;;;-145.69;100.00;52555.28;5114901;28;20239;-83
2022/11/17 04:18:50;;;;;;;2.97;1.70;;;;;;;-145.69;100.00;52583.00;5114915;28;20204;-84
2022/11/17 04:21:17;;;;;;;2.40;1.63;;;;;;;-145.69;100.00;52513.69;5114970;28;20198;-84
2022/11/17 04:23:43;;;;;;;2.53;1.40;;;;;;;-145.69;100.00;52569.16;5114076;28;20209;-85
2022/11/17 04:28:55;;;;;;;4.03;1.43;;;;;;;-145.69;100.00;52541.44;5114908;28;20575;-84
2022/11/17 04:31:24;;;;;;;2.47;1.60;;;;;;;-145.69;100.00;52547.38;5114759;28;20715;-84
2022/11/17 04:33:53;;;;;;;4.77;1.80;;;;;;;-145.69;100.00;52547.38;5114818;28;20319;-85
2022/11/17 04:36:23;;;;;;;4.07;1.40;;;;;;;-145.69;100.00;52537.47;5114552;28;20319;-85
2022/11/17 04:38:51;;;;;;;2.90;1.40;;;;;;;-145.69;100.00;52529.53;5114621;28;20258;-84
2022/11/17 04:44:05;;;;;;;2.03;1.40;;;;;;;-145.69;100.00;52539.44;5114248;28;20288;-84
2022/11/17 04:46:34;;;;;;;3.80;1.37;;;;;;;-145.69;100.00;52561.22;5114609;28;20620;-84
2022/11/17 04:49:02;;;;;;;3.33;1.53;;;;;;;-145.69;100.00;52555.28;5114338;28;20205;-84
2022/11/17 04:51:30;;;;;;;4.97;1.90;;;;;;;-145.69;100.00;52553.31;5114545;28;20205;-84
2022/11/17 04:53:57;;;;;;;2.80;1.73;;;;;;;-145.69;100.00;52551.31;5114309;28;20316;-84
2022/11/17 04:56:27;;;;;;;3.60;1.80;;;;;;;-145.69;100.00;52535.47;5113914;28;20208;-84
2022/11/17 04:58:54;;;;;;;5.40;2.43;;;;;;;-145.69;100.00;52549.34;5114392;28;20225;-84
2022/11/17 05:01:22;;;;;;;3.75;1.85;;;;;;;-145.69;100.00;52547.38;5113947;28;20525;-84
2022/11/17 05:03:51;;;;;;;2.33;1.60;;;;;;;-145.69;100.00;52531.53;5114180;28;20345;-84
2022/11/17 05:06:20;;;;;;;3.23;1.53;;;;;;;-145.69;100.00;52551.31;5114496;28;20197;-84
2022/11/17 05:08:47;;;;;;;3.60;1.50;;;;;;;-145.69;100.00;52525.59;5114094;28;20220;-85
2022/11/17 05:14:00;;;;;;;2.93;1.70;;;;;;;-145.69;100.00;52539.44;5114208;28;20812;-84
2022/11/17 05:19:14;;;;;;;3.33;1.50;;;;;;;-145.69;100.00;52535.47;5113650;28;20656;-83
2022/11/17 05:21:41;;;;;;;3.07;1.93;;;;;;;-145.69;100.00;52563.22;5113302;28;20204;-84
2022/11/17 05:24:07;;;;;;;4.27;1.80;;;;;;;-145.69;100.00;52575.09;5114082;28;20247;-83
2022/11/17 05:26:36;;;;;;;2.00;1.60;;;;;;;-145.69;100.00;52543.41;5113944;28;20241;-84
2022/11/17 05:29:05;;;;;;;1.50;1.40;;;;;;;-145.69;100.00;52559.25;5113646;28;20209;-85
2022/11/17 05:31:32;;;;;;;4.10;1.53;;;;;;;-145.69;100.00;52573.13;5113681;28;20640;-83
2022/11/17 05:33:59;;;;;;;3.43;1.20;;;;;;;-145.69;100.00;52533.50;5113415;28;20241;-85
2022/11/17 05:36:27;;;;;;;2.83;1.23;;;;;;;-145.69;100.00;52577.06;5113494;28;20583;-83
2022/11/17 05:38:55;;;;;;;2.00;1.37;;;;;;;-145.69;100.00;52543.41;5094235;28;20667;-84
2022/11/17 05:41:23;;;;;;;4.37;1.50;;;;;;;-145.69;100.00;52543.41;5093438;28;20208;-84
2022/11/17 05:43:50;;;;;;;4.73;0.90;;;;;;;-145.69;100.00;52519.63;5093245;28;20209;-83
2022/11/17 05:46:17;;;;;;;3.47;1.10;;;;;;;-145.69;100.00;52565.19;5093314;28;20202;-85
2022/11/17 05:48:44;;;;;;;2.97;1.07;;;;;;;-145.69;100.00;52541.44;5093119;28;20247;-84
2022/11/17 05:51:12;;;;;;;1.80;1.47;;;;;;;-145.69;100.00;52547.38;5104197;28;20323;-84
2022/11/17 05:53:40;;;;;;;4.80;1.03;;;;;;;-145.69;100.00;52535.47;5113547;28;20691;-86
2022/11/17 05:56:27;;;;;;;2.35;0.88;;;;;;;-145.69;100.00;52523.59;5112939;28;20518;-84
2022/11/17 05:58:58;;;;;;;2.40;0.80;;;;;;;-145.69;100.00;52535.47;5113451;28;20284;-85
2022/11/17 06:01:26;;;;;;;1.87;0.80;;;;;;;-145.69;100.00;52543.41;5114011;28;20232;-85
2022/11/17 06:03:56;;;;;;;4.97;0.90;;;;;;;-145.69;100.00;52575.09;5113639;28;20204;-85
2022/11/17 06:06:23;;;;;;;2.77;0.97;;;;;;;-145.69;100.00;52571.13;5113292;28;20197;-83
2022/11/17 06:08:51;;;;;;;4.17;1.10;;;;;;;-145.69;100.00;52561.22;5113067;28;20205;-83
2022/11/17 06:11:18;;;;;;;1.80;0.83;;;;;;;-145.69;100.00;52553.31;5113417;28;20194;-83
2022/11/17 06:13:45;;;;;;;8.83;1.30;;;;;;;-145.69;100.00;52551.31;5112795;28;20257;-84
2022/11/17 06:16:13;;;;;;;6.17;1.17;;;;;;;-145.69;100.00;52543.41;5113638;28;20560;-84
2022/11/17 06:18:44;;;;;;;5.43;1.03;;;;;;;-145.69;100.00;52531.53;5113253;28;20204;-84
2022/11/17 06:21:14;;;;;;;6.17;1.10;;;;;;;-145.69;100.00;52547.38;5113124;28;20691;-84
2022/11/17 06:23:41;;;;;;;6.13;1.13;;;;;;;-145.69;100.00;52555.28;5112755;28;20208;-83
2022/11/17 06:26:10;;;;;;;8.53;1.40;;;;;;;-145.69;100.00;52515.69;5113136;28;20197;-84
2022/11/17 06:28:41;;;;;;;7.10;1.20;;;;;;;-145.69;100.00;52559.25;5113519;28;20203;-86
2022/11/17 06:31:08;;;;;;;7.67;1.53;;;;;;;-145.69;100.00;52537.47;5113726;28;20257;-84
2022/11/17 06:33:36;;;;;;;5.50;1.10;;;;;;;-145.69;100.00;52569.16;5113073;28;20708;-86
2022/11/17 06:36:07;;;;;;;5.37;1.03;;;;;;;-145.69;100.00;52533.50;5113312;28;20252;-85
2022/11/17 06:38:34;;;;;;;4.10;0.93;;;;;;;-145.69;100.00;52523.59;5113269;28;20202;-84
2022/11/17 06:41:01;;;;;;;4.93;1.00;;;;;;;-145.69;100.00;52545.38;5112711;28;20204;-83
2022/11/17 06:43:29;;;;;;;5.07;0.90;;;;;;;-145.69;100.00;52527.56;5112960;28;20202;-83
2022/11/17 06:45:56;;;;;;;5.73;0.90;;;;;;;-145.69;100.00;52521.63;5113015;28;20236;-83
2022/11/17 06:48:25;;;;;;;5.63;1.33;;;;;;;-145.69;100.00;52581.03;5116686;28;20194;-82
2022/11/17 06:50:53;;;;;;;5.27;0.90;;;;;;;-145.69;100.00;52555.28;5115734;28;20197;-80
2022/11/17 06:53:25;;;;;;;6.20;1.33;;;;;;;-145.69;100.00;52537.47;5116291;28;20744;-84
2022/11/17 06:55:52;;;;;;;5.33;1.10;;;;;;;-145.69;100.00;52543.41;5116294;28;20201;-84
2022/11/17 06:58:21;;;;;;;11.50;1.27;;;;;;;-145.69;100.00;52555.28;5116388;28;20198;-84
2022/11/17 07:00:49;;;;;;;4.20;1.23;;;;;;;-145.69;100.00;52531.53;5116321;28;20239;-84
2022/11/17 07:03:16;;;;;;;6.27;0.90;;;;;;;-145.69;100.00;52531.53;5116345;28;20296;-84
2022/11/17 07:05:45;;;;;;;4.40;1.03;;;;;;;-145.69;100.00;52521.63;5116187;28;20606;-83
2022/11/17 07:08:11;;;;;;;4.23;1.17;;;;;;;-145.69;100.00;52523.59;5116337;28;20199;-83
2022/11/17 07:10:38;;;;;;;7.10;1.10;;;;;;;-145.69;100.00;52561.22;5116510;28;20201;-83
2022/11/17 07:13:05;;;;;;;5.93;0.97;;;;;;;-145.69;100.00;52531.53;5116023;28;20675;-82
2022/11/17 07:15:31;;;;;;;4.90;1.27;;;;;;;-145.69;100.00;52539.44;5115921;28;20616;-84
2022/11/17 07:17:59;;;;;;;7.30;1.10;;;;;;;-145.69;100.00;52583.00;5115971;28;20197;-83
2022/11/17 07:20:26;;;;;;;4.07;1.00;;;;;;;-145.69;100.00;52523.59;5115837;28;20204;-83
2022/11/17 07:22:58;;;;;;;7.20;1.50;;;;;;;-145.69;100.00;52531.53;5115197;28;20251;-83
2022/11/17 07:25:25;;;;;;;10.00;1.37;;;;;;;-145.69;100.00;52547.38;5115822;28;20225;-83
2022/11/17 07:27:58;;;;;;;4.47;1.13;;;;;;;-145.69;100.00;52535.47;5115871;28;20251;-84
2022/11/17 07:30:24;;;;;;;6.30;1.10;;;;;;;-145.69;100.00;52517.66;5115755;28;20198;-83
2022/11/17 07:32:51;;;;;;;10.70;1.60;;;;;;;-145.69;100.00;52545.38;5115853;28;20224;-83
2022/11/17 07:35:19;;;;;;;6.93;1.10;;;;;;;-145.69;100.00;52547.38;5115759;28;20605;-83
2022/11/17 07:37:46;;;;;;;8.37;1.40;;;;;;;-145.69;100.00;52553.31;5116096;28;20197;-83
2022/11/17 07:40:12;;;;;;;6.83;1.40;;;;;;;-145.69;100.00;52533.50;5116868;28;20194;-82
2022/11/17 07:42:39;;;;;;;6.83;1.20;;;;;;;-145.69;100.00;52511.72;5112353;28;20198;-82
2022/11/17 07:45:07;;;;;;;8.17;1.13;;;;;;;-145.69;100.00;52535.47;5115753;28;20205;-82
2022/11/17 07:47:34;;;;;;;10.17;1.80;;;;;;;-145.69;100.00;52539.44;5116700;28;20204;-82
2022/11/17 07:50:00;;;;;;;5.37;1.60;;;;;;;-145.69;100.00;52539.44;5116427;28;20197;-83
2022/11/17 07:52:28;;;;;;;10.10;1.70;;;;;;;-145.69;100.00;52575.09;5116577;28;20204;-83
2022/11/17 07:54:55;;;;;;;11.03;2.07;;;;;;;-145.69;100.00;52573.13;5116370;28;20559;-81
2022/11/17 07:57:21;;;;;;;11.93;2.00;;;;;;;-145.69;100.00;52575.09;5116242;28;20288;-83
2022/11/17 07:59:48;;;;;;;8.43;1.63;;;;;;;-145.69;100.00;52533.50;5116130;28;20197;-82
2022/11/17 08:02:14;;;;;;;9.48;1.50;;;;;;;-145.69;100.00;52551.31;5115411;28;20790;-81
2022/11/17 08:04:41;;;;;;;9.20;1.37;;;;;;;-145.69;100.00;52551.31;5116243;28;20208;-81
2022/11/17 08:07:08;;;;;;;1.97;0.97;;;;;;;-145.69;100.00;52543.41;5116634;28;20193;-82
2022/11/17 08:09:35;;;;;;;4.63;1.20;;;;;;;-145.69;100.00;52541.44;5115686;28;20284;-82
2022/11/17 08:12:02;;;;;;;7.07;1.73;;;;;;;-145.69;100.00;52543.41;5116105;28;20208;-83
2022/11/17 08:14:29;;;;;;;6.00;1.43;;;;;;;-145.69;100.00;52553.31;5116197;28;20236;-83
2022/11/17 08:16:56;;;;;;;3.03;1.00;;;;;;;-145.69;100.00;52547.38;5116841;28;20204;-81
2022/11/17 08:19:22;;;;;;;5.53;1.10;;;;;;;-145.69;100.00;52594.91;5117689;28;20551;-82
2022/11/17 08:21:49;;;;;;;6.50;1.10;;;;;;;-145.69;100.00;52539.44;5115877;28;20208;-81
2022/11/17 08:24:16;;;;;;;2.40;1.07;;;;;;;-145.69;100.00;52579.06;5115336;28;20235;-82
2022/11/17 08:26:44;;;;;;;7.43;0.90;;;;;;;-145.69;100.00;52575.09;5114873;28;20194;-80
2022/11/17 08:29:11;;;;;;;4.40;0.90;;;;;;;-145.69;100.00;52590.94;5115832;28;20204;-81
2022/11/17 08:31:40;;;;;;;2.07;0.73;;;;;;;-145.69;100.00;52547.38;5115207;28;20204;-81
2022/11/17 08:34:07;;;;;;;3.13;0.80;;;;;;;-145.69;100.00;52543.41;5115425;28;20695;-81
2022/11/17 08:36:33;;;;;;;1.70;0.70;;;;;;;-145.69;100.00;52555.28;5114164;28;20240;-80
2022/11/17 08:39:00;;;;;;;3.03;0.60;;;;;;;-145.69;100.00;52537.47;5114105;28;20228;-78
2022/11/17 08:41:26;;;;;;;4.17;0.80;;;;;;;-145.69;100.00;52563.22;5113968;28;20205;-78
2022/11/17 08:43:54;;;;;;;6.20;1.00;;;;;;;-145.69;100.00;52559.25;5114163;28;20292;-78
2022/11/17 08:46:21;;;;;;;2.70;0.80;;;;;;;-145.69;100.00;52557.28;5113944;28;20205;-78
2022/11/17 08:48:47;;;;;;;1.07;0.80;;;;;;;-145.69;100.00;52596.88;5113452;28;20197;-76
2022/11/17 08:51:14;;;;;;;3.13;0.80;;;;;;;-145.69;100.00;52539.44;5113509;28;20655;-76
2022/11/17 08:53:41;;;;;;;5.63;0.80;;;;;;;-145.69;100.00;52551.31;5113552;28;20229;-76
2022/11/17 08:56:10;;;;;;;1.33;0.60;;;;;;;-145.69;100.00;52569.16;5113306;28;20556;-76
2022/11/17 08:58:41;;;;;;;2.60;0.80;;;;;;;-145.69;100.00;52575.09;5114004;28;20229;-76
2022/11/17 09:01:10;;;;;;;3.00;0.90;;;;;;;-145.69;100.00;52598.84;5113660;28;20194;-77
2022/11/17 09:03:37;;;;;;;2.73;0.80;;;;;;;-145.69;100.00;52535.47;5113800;28;20201;-77
2022/11/17 09:06:05;;;;;;;1.90;0.60;;;;;;;-145.69;100.00;52569.16;5113269;28;20284;-76
2022/11/17 09:08:32;;;;;;;1.70;0.60;;;;;;;-145.69;100.00;52551.31;5113622;28;20224;-76
2022/11/17 09:11:03;;;;;;;0.93;0.70;;;;;;;-145.69;100.00;52539.44;5113571;28;20208;-77
2022/11/17 09:13:31;;;;;;;1.13;0.60;;;;;;;-145.69;100.00;52573.13;5113359;28;20309;-77
2022/11/17 09:16:00;;;;;;;0.80;0.40;;;;;;;-145.69;100.00;52571.13;5113173;28;20207;-76
2022/11/17 09:18:28;;;;;;;2.03;0.90;;;;;;;-145.69;100.00;52533.50;5112953;28;20211;-78
2022/11/17 09:20:59;;;;;;;0.70;0.63;;;;;;;-145.69;100.00;52571.13;5093092;28;20239;-77
2022/11/17 09:23:25;;;;;;;1.03;0.60;;;;;;;-145.69;100.00;52573.13;5110150;28;20198;-79
2022/11/17 09:25:55;;;;;;;2.47;0.60;;;;;;;-145.69;100.00;52583.00;5113121;28;20208;-77
2022/11/17 09:28:24;;;;;;;1.90;0.70;;;;;;;-145.69;100.00;52575.09;5113440;28;20212;-79
2022/11/17 09:30:50;;;;;;;0.60;0.60;;;;;;;-145.69;100.00;52588.97;5112875;28;20379;-79
2022/11/17 09:33:17;;;;;;;1.43;0.90;;;;;;;-145.69;100.00;52535.47;5113117;28;20235;-78
2022/11/17 09:35:45;;;;;;;2.33;0.93;;;;;;;-145.69;100.00;52594.91;5113078;28;20238;-78
2022/11/17 09:38:11;;;;;;;1.13;0.60;;;;;;;-145.69;100.00;52579.06;5110686;28;20292;-78
2022/11/17 09:40:40;;;;;;;1.90;0.70;;;;;;;-145.69;100.00;52565.19;5093386;28;20198;-78
2022/11/17 09:43:22;;;;;;;1.50;0.50;;;;;;;-145.69;100.00;52525.59;5092719;28;20204;-78
2022/11/17 09:45:50;;;;;;;1.17;0.70;;;;;;;-145.69;100.00;52577.06;5092872;28;20202;-77
2022/11/17 09:48:21;;;;;;;1.70;0.77;;;;;;;-145.69;100.00;52551.31;5098018;28;20240;-78
2022/11/17 09:50:56;;;;;;;1.97;0.70;;;;;;;-145.69;100.00;52555.28;5113294;28;20297;-79
2022/11/17 09:53:28;;;;;;;3.90;1.23;;;;;;;-145.69;100.00;52586.97;5113054;28;20204;-79
2022/11/17 09:55:58;;;;;;;3.40;0.80;;;;;;;-145.69;100.00;52569.16;5113225;28;20306;-79
2022/11/17 09:58:31;;;;;;;4.23;0.90;;;;;;;-145.69;100.00;52579.06;5112890;28;20754;-78
2022/11/17 10:00:58;;;;;;;1.53;0.60;;;;;;;-145.69;100.00;52549.34;5113205;28;20287;-78
2022/11/17 10:03:28;;;;;;;6.80;0.50;;;;;;;-145.69;100.00;52598.84;5113165;28;20197;-78
2022/11/17 10:05:56;;;;;;;2.87;0.90;;;;;;;-145.69;100.00;52565.19;5112962;28;20726;-79
2022/11/17 10:08:31;;;;;;;3.07;0.70;;;;;;;-145.69;100.00;52555.28;5113036;28;20203;-78
2022/11/17 10:10:58;;;;;;;2.00;0.60;;;;;;;-145.69;100.00;52539.44;5112995;28;20274;-78
2022/11/17 10:13:32;;;;;;;3.80;0.83;;;;;;;-145.69;100.00;52559.25;5112777;28;20204;-78
2022/11/17 10:16:03;;;;;;;4.37;0.90;;;;;;;-145.69;100.00;52592.91;5113088;28;20257;-78
2022/11/17 10:18:34;;;;;;;4.60;0.70;;;;;;;-145.69;100.00;52551.31;5112699;28;20201;-79
2022/11/17 10:21:06;;;;;;;7.17;1.00;;;;;;;-145.69;100.00;52563.22;5113267;28;20199;-78
2022/11/17 10:23:36;;;;;;;5.87;0.90;;;;;;;-145.69;100.00;52551.31;5116838;28;20232;-78
2022/11/17 10:26:08;;;;;;;4.80;1.10;;;;;;;-145.69;100.00;52559.25;5116983;28;20197;-78
2022/11/17 10:28:35;;;;;;;4.53;1.20;;;;;;;-145.69;100.00;52581.03;5116927;28;20229;-78
2022/11/17 10:31:03;;;;;;;6.80;1.00;;;;;;;-145.69;100.00;52527.56;5116732;28;20198;-78
2022/11/17 10:33:38;;;;;;;6.43;0.93;;;;;;;-145.69;100.00;52543.41;5116538;28;20533;-78
2022/11/17 10:36:17;;;;;;;10.03;1.33;;;;;;;-145.69;100.00;52529.53;5116045;28;20220;-77
2022/11/17 10:38:45;;;;;;;8.73;1.37;;;;;;;-145.69;100.00;52579.06;5116528;28;20288;-78
2022/11/17 10:41:15;;;;;;;8.17;1.27;;;;;;;-145.69;100.00;52553.31;5116526;28;20204;-78
2022/11/17 10:43:54;;;;;;;12.60;1.87;;;;;;;-145.69;100.00;52553.31;5116495;28;20206;-79
2022/11/17 10:46:22;;;;;;;6.67;1.67;;;;;;;-145.69;100.00;52525.59;5116406;28;20193;-77
2022/11/17 10:48:55;;;;;;;9.13;1.43;;;;;;;-145.69;100.00;52557.28;5115672;28;20193;-78
2022/11/17 10:51:25;;;;;;;6.23;1.13;;;;;;;-145.69;100.00;52515.69;5116392;28;20224;-78
2022/11/17 10:54:02;;;;;;;9.03;1.53;;;;;;;-145.69;100.00;52515.69;5116495;28;20289;-78
2022/11/17 10:56:38;;;;;;;8.13;1.23;;;;;;;-145.69;100.00;52551.31;5116465;28;20296;-78
2022/11/17 10:59:14;;;;;;;8.70;1.47;;;;;;;-145.69;100.00;52539.44;5116059;28;20204;-78
2022/11/17 11:01:42;;;;;;;9.43;1.30;;;;;;;-145.69;100.00;52529.53;5116062;28;20655;-78
2022/11/17 11:04:35;;;;;;;13.40;1.83;;;;;;;-145.69;100.00;52531.53;5116210;28;20462;-77
2022/11/17 11:07:12;;;;;;;6.37;1.10;;;;;;;-145.69;100.00;52535.47;5116475;28;20211;-79
2022/11/17 11:09:44;;;;;;;8.63;1.50;;;;;;;-145.69;100.00;52539.44;5116002;28;20197;-78
2022/11/17 11:12:17;;;;;;;8.43;1.60;;;;;;;-145.69;100.00;52543.41;5115599;28;20190;-78
2022/11/17 11:14:48;;;;;;;12.30;1.93;;;;;;;-145.69;100.00;52519.63;5115534;28;20317;-78
2022/11/17 11:17:19;;;;;;;11.47;1.20;;;;;;;-145.69;100.00;52509.75;5115658;28;20205;-78
2022/11/17 11:19:51;;;;;;;11.65;2.10;;;;;;;-145.69;100.00;52495.88;5114850;28;20914;-78
2022/11/17 11:22:43;;;;;;;9.07;1.90;;;;;;;-145.69;100.00;52511.72;5115718;28;20246;-78
2022/11/17 11:25:30;;;;;;;13.13;1.80;;;;;;;-145.69;100.00;52529.53;5115621;28;20206;-78
2022/11/17 11:28:08;;;;;;;7.70;1.43;;;;;;;-145.69;100.00;52511.72;5115936;28;20204;-78
2022/11/17 11:30:42;;;;;;;11.13;1.60;;;;;;;-145.69;100.00;52525.59;5115872;28;20288;-78
2022/11/17 11:33:23;;;;;;;10.33;1.47;;;;;;;-145.69;100.00;52501.81;5115204;28;20352;-78
2022/11/17 11:36:19;;;;;;;11.23;1.60;;;;;;;-145.69;100.00;52517.66;5115071;28;20596;-78
2022/11/17 11:38:58;;;;;;;13.57;1.63;;;;;;;-145.69;100.00;52495.88;5098248;28;20285;-78
2022/11/17 11:41:43;;;;;;;8.43;1.63;;;;;;;-145.69;100.00;52509.75;5098977;28;20197;-78
2022/11/17 11:44:37;;;;;;;8.45;1.40;;;;;;;-145.69;100.00;52527.56;5115366;28;20258;-78
2022/11/17 11:47:13;;;;;;;15.23;1.40;;;;;;;-145.69;100.00;52487.97;5115085;28;20555;-78